Time;durP1;ratioP1;P1;durP2;ratioP2;P2;SDS_P1;SDS_P2;PMS_P1;PMS_P2;Temp;Humidity;BMP_temperature;BMP_pressure;BME280_temperature;BME280_humidity;BME280_pressure;Samples;Min_cycle;Max_cycle;Signal;HPM_P1;HPM_P2
2023/07/24 00:01:26;;;;;;;;;;;;;;;24.90;32.62;99575.28;6156685;23;20250;-66
2023/07/24 00:03:54;;;;;;;;;;;;;;;24.89;33.22;99573.66;6130626;23;19947;-66
2023/07/24 00:06:19;;;;;;;;;;;;;;;24.91;33.10;99570.59;6130224;23;19967;-66
2023/07/24 00:08:45;;;;;;;;;;;;;;;24.96;32.61;99575.16;6156548;23;19909;-66
2023/07/24 00:11:10;;;;;;;;;;;;;;;24.90;32.66;99571.72;6156577;23;19959;-65
2023/07/24 00:13:35;;;;;;;;;;;;;;;24.89;32.46;99570.13;6156573;23;19912;-65
2023/07/24 00:16:05;;;;;;;;;;;;;;;24.85;32.76;99569.91;6156968;23;20203;-66
2023/07/24 00:18:30;;;;;;;;;;;;;;;24.89;32.51;99562.69;6156925;23;20003;-65
2023/07/24 00:20:56;;;;;;;;;;;;;;;24.83;33.22;99554.84;6156774;23;19913;-65
2023/07/24 00:23:21;;;;;;;;;;;;;;;24.72;32.67;99557.03;6156725;23;19940;-65
2023/07/24 00:25:46;;;;;;;;;;;;;;;24.75;32.46;99556.41;6156609;23;19951;-65
2023/07/24 00:28:11;;;;;;;;;;;;;;;24.74;32.70;99552.06;6156251;23;19908;-65
2023/07/24 00:30:37;;;;;;;;;;;;;;;24.68;33.09;99558.78;6156306;23;20551;-65
2023/07/24 00:33:02;;;;;;;;;;;;;;;24.64;33.62;99550.34;6156749;23;19909;-65
2023/07/24 00:35:27;;;;;;;;;;;;;;;24.61;33.20;99550.16;6156492;23;19908;-65
2023/07/24 00:37:53;;;;;;;;;;;;;;;24.58;33.55;99548.84;6156267;23;19912;-65
2023/07/24 00:40:18;;;;;;;;;;;;;;;24.54;33.49;99547.84;6156861;23;19916;-65
2023/07/24 00:42:47;;;;;;;;;;;;;;;24.49;33.40;99550.69;6156433;23;19919;-65
2023/07/24 00:45:12;;;;;;;;;;;;;;;24.47;33.23;99550.97;6156730;23;20297;-65
2023/07/24 00:47:37;;;;;;;;;;;;;;;24.45;33.31;99547.72;6155502;23;19940;-65
2023/07/24 00:50:03;;;;;;;;;;;;;;;24.42;33.85;99548.34;6156227;23;19913;-65
2023/07/24 00:52:28;;;;;;;;;;;;;;;24.42;33.36;99547.53;6156341;23;19995;-65
2023/07/24 00:54:54;;;;;;;;;;;;;;;24.41;33.27;99545.94;6156357;23;19916;-65
2023/07/24 00:57:19;;;;;;;;;;;;;;;24.43;33.26;99541.75;6156249;23;19913;-65
2023/07/24 00:59:45;;;;;;;;;;;;;;;24.38;33.38;99536.38;6156256;23;19984;-65
2023/07/24 01:02:11;;;;;;;;;;;;;;;24.40;34.12;99541.53;6156009;23;19939;-65
2023/07/24 01:04:37;;;;;;;;;;;;;;;24.30;33.81;99540.66;6156372;23;19913;-65
2023/07/24 01:07:02;;;;;;;;;;;;;;;24.27;33.96;99540.44;6156351;23;19909;-65
2023/07/24 01:09:27;;;;;;;;;;;;;;;24.20;33.94;99529.91;6155915;23;19909;-65
2023/07/24 01:11:58;;;;;;;;;;;;;;;24.19;33.69;99535.69;6156188;23;20285;-65
2023/07/24 01:14:29;;;;;;;;;;;;;;;24.18;33.47;99539.56;6156341;23;19964;-65
2023/07/24 01:16:55;;;;;;;;;;;;;;;24.17;34.18;99535.19;6156249;23;19912;-65
2023/07/24 01:19:36;;;;;;;;;;;;;;;24.20;33.44;99532.66;6155954;23;19909;-65
2023/07/24 01:22:09;;;;;;;;;;;;;;;24.23;33.58;99539.44;6155573;23;19919;-65
2023/07/24 01:24:45;;;;;;;;;;;;;;;24.23;33.05;99531.22;6155582;23;19963;-65
2023/07/24 01:27:10;;;;;;;;;;;;;;;24.27;33.32;99533.03;6156408;23;19988;-65
2023/07/24 01:29:35;;;;;;;;;;;;;;;24.22;33.60;99529.59;6155855;23;19959;-65
2023/07/24 01:32:01;;;;;;;;;;;;;;;24.20;33.11;99531.81;6156364;23;19916;-65
2023/07/24 01:34:26;;;;;;;;;;;;;;;24.19;33.42;99531.03;6156097;23;19940;-65
2023/07/24 01:36:51;;;;;;;;;;;;;;;24.10;34.11;99522.69;6156019;23;19912;-65
2023/07/24 01:39:18;;;;;;;;;;;;;;;24.05;33.87;99525.56;6156268;23;19932;-65
2023/07/24 01:41:43;;;;;;;;;;;;;;;24.08;33.98;99533.16;6156653;23;20356;-65
2023/07/24 01:44:08;;;;;;;;;;;;;;;24.07;33.25;99523.31;6156285;23;19939;-65
2023/07/24 01:46:34;;;;;;;;;;;;;;;24.05;33.29;99520.09;6155320;23;19935;-65
2023/07/24 01:48:59;;;;;;;;;;;;;;;24.05;33.45;99524.72;6156105;23;19908;-65
2023/07/24 01:51:25;;;;;;;;;;;;;;;24.02;33.63;99519.88;6156189;23;19909;-65
2023/07/24 01:53:50;;;;;;;;;;;;;;;23.95;33.91;99523.03;6155270;23;20246;-65
2023/07/24 01:56:15;;;;;;;;;;;;;;;23.98;33.31;99518.84;6155423;23;19925;-65
2023/07/24 01:58:41;;;;;;;;;;;;;;;23.94;33.60;99515.91;6155352;23;19909;-65
2023/07/24 02:01:06;;;;;;;;;;;;;;;23.89;33.67;99514.09;6155789;23;19919;-65
2023/07/24 02:03:31;;;;;;;;;;;;;;;23.88;33.31;99514.38;6155352;23;19917;-65
2023/07/24 02:05:56;;;;;;;;;;;;;;;23.84;33.51;99508.72;6155407;23;19913;-65
2023/07/24 02:08:22;;;;;;;;;;;;;;;23.80;33.70;99510.44;6155783;23;19908;-65
2023/07/24 02:10:50;;;;;;;;;;;;;;;23.80;33.76;99513.19;6155668;23;20048;-66
2023/07/24 02:13:16;;;;;;;;;;;;;;;23.75;33.73;99497.63;6129227;23;19944;-66
2023/07/24 02:15:41;;;;;;;;;;;;;;;23.74;33.52;99512.44;6155210;23;19983;-66
2023/07/24 02:18:06;;;;;;;;;;;;;;;23.71;33.57;99504.81;6155294;23;19996;-65
2023/07/24 02:20:32;;;;;;;;;;;;;;;23.64;33.88;99504.41;6155829;23;19991;-66
2023/07/24 02:22:57;;;;;;;;;;;;;;;23.60;34.23;99502.59;6155075;23;19947;-66
2023/07/24 02:25:22;;;;;;;;;;;;;;;23.54;33.94;99505.44;6155492;23;19908;-66
2023/07/24 02:27:48;;;;;;;;;;;;;;;23.51;34.00;99503.31;6155400;23;20302;-66
2023/07/24 02:30:13;;;;;;;;;;;;;;;23.54;33.86;99490.91;6155156;23;19977;-66
2023/07/24 02:32:38;;;;;;;;;;;;;;;23.52;33.80;99504.13;6155014;23;19960;-66
2023/07/24 02:35:04;;;;;;;;;;;;;;;23.48;34.25;99503.09;6155000;23;20207;-66
2023/07/24 02:37:29;;;;;;;;;;;;;;;23.43;33.80;99498.53;6154993;23;20238;-66
2023/07/24 02:39:55;;;;;;;;;;;;;;;23.45;34.09;99492.75;6155212;23;19912;-66
2023/07/24 02:42:20;;;;;;;;;;;;;;;23.42;33.95;99487.84;6155297;23;19908;-66
2023/07/24 02:44:45;;;;;;;;;;;;;;;23.38;34.33;99487.66;6155406;23;19940;-66
2023/07/24 02:47:10;;;;;;;;;;;;;;;23.40;33.96;99488.16;6128405;23;20302;-66
2023/07/24 02:49:36;;;;;;;;;;;;;;;23.44;34.43;99477.41;6155305;23;20238;-66
2023/07/24 02:52:01;;;;;;;;;;;;;;;23.43;34.29;99482.06;6129568;23;19915;-66
2023/07/24 02:54:27;;;;;;;;;;;;;;;23.38;34.71;99477.53;6155361;23;20266;-66
2023/07/24 02:56:52;;;;;;;;;;;;;;;23.36;34.30;99482.50;6154986;23;20247;-66
2023/07/24 02:59:17;;;;;;;;;;;;;;;23.41;34.49;99476.09;6155064;23;19916;-65
2023/07/24 03:01:43;;;;;;;;;;;;;;;23.37;34.48;99480.56;6154902;23;20220;-65
2023/07/24 03:04:08;;;;;;;;;;;;;;;23.34;34.50;99478.41;6154743;23;19908;-65
2023/07/24 03:06:33;;;;;;;;;;;;;;;23.33;34.81;99480.34;6155162;23;19908;-65
2023/07/24 03:08:59;;;;;;;;;;;;;;;23.29;34.65;99470.28;6154911;23;19908;-65
2023/07/24 03:11:24;;;;;;;;;;;;;;;23.28;34.88;99479.63;6154835;23;20006;-66
2023/07/24 03:13:49;;;;;;;;;;;;;;;23.31;34.71;99484.50;6128721;23;20323;-65
2023/07/24 03:16:17;;;;;;;;;;;;;;;23.24;35.44;99473.94;6154704;23;20011;-65
2023/07/24 03:18:42;;;;;;;;;;;;;;;23.31;34.67;99476.28;6154696;23;19909;-65
2023/07/24 03:21:07;;;;;;;;;;;;;;;23.35;34.29;99469.91;6154926;23;19909;-65
2023/07/24 03:23:32;;;;;;;;;;;;;;;23.37;34.48;99475.88;6155142;23;19908;-65
2023/07/24 03:25:58;;;;;;;;;;;;;;;23.39;34.68;99481.06;6155438;23;19956;-65
2023/07/24 03:28:23;;;;;;;;;;;;;;;23.44;34.68;99480.13;6155140;23;19909;-66
2023/07/24 03:30:48;;;;;;;;;;;;;;;23.45;34.62;99474.34;6129041;23;19951;-66
2023/07/24 03:33:13;;;;;;;;;;;;;;;23.49;34.55;99478.09;6129576;23;19909;-66
2023/07/24 03:35:39;;;;;;;;;;;;;;;23.51;34.74;99481.38;6157158;23;20283;-66
2023/07/24 03:38:05;;;;;;;;;;;;;;;23.57;34.50;99487.56;6157003;23;19912;-66
2023/07/24 03:40:30;;;;;;;;;;;;;;;23.58;34.34;99486.44;6157262;23;19916;-65
2023/07/24 03:42:55;;;;;;;;;;;;;;;23.27;35.08;99428.69;6157206;23;19916;-66
2023/07/24 03:45:21;;;;;;;;;;;;;;;23.67;34.54;99476.41;6157350;23;20294;-66
2023/07/24 03:47:46;;;;;;;;;;;;;;;23.69;34.42;99479.63;6156341;23;20286;-65
2023/07/24 03:50:12;;;;;;;;;;;;;;;23.74;34.33;99474.06;6157053;23;19916;-65
2023/07/24 03:52:37;;;;;;;;;;;;;;;23.78;34.45;99477.00;6157331;23;20302;-65
2023/07/24 03:55:03;;;;;;;;;;;;;;;23.82;34.31;99478.03;6157067;23;19915;-65
2023/07/24 03:57:28;;;;;;;;;;;;;;;23.83;34.48;99474.19;6157061;23;20062;-65
2023/07/24 03:59:53;;;;;;;;;;;;;;;23.85;34.35;99477.44;6156882;23;19916;-65
2023/07/24 04:02:19;;;;;;;;;;;;;;;23.85;34.30;99474.69;6156903;23;19992;-65
2023/07/24 04:04:44;;;;;;;;;;;;;;;23.90;34.47;99468.28;6157233;23;19908;-65
2023/07/24 04:07:09;;;;;;;;;;;;;;;23.91;34.48;99470.72;6156801;23;20507;-65
2023/07/24 04:09:35;;;;;;;;;;;;;;;23.94;34.13;99472.03;6156720;23;20315;-65
2023/07/24 04:12:00;;;;;;;;;;;;;;;23.95;34.59;99463.50;6157132;23;19916;-65
2023/07/24 04:14:25;;;;;;;;;;;;;;;24.00;34.13;99470.00;6130495;23;20311;-65
2023/07/24 04:16:51;;;;;;;;;;;;;;;24.03;34.31;99466.63;6156663;23;19947;-65
2023/07/24 04:19:16;;;;;;;;;;;;;;;24.05;34.62;99465.22;6156902;23;20225;-64
2023/07/24 04:21:41;;;;;;;;;;;;;;;24.08;34.34;99461.84;6156923;23;19956;-65
2023/07/24 04:24:06;;;;;;;;;;;;;;;24.15;34.36;99458.69;6156937;23;19979;-65
2023/07/24 04:26:32;;;;;;;;;;;;;;;24.24;34.40;99456.03;6156312;23;19908;-65
2023/07/24 04:28:57;;;;;;;;;;;;;;;24.33;34.64;99457.72;6156816;23;19915;-65
2023/07/24 04:31:22;;;;;;;;;;;;;;;24.42;34.13;99449.53;6156925;23;19952;-65
2023/07/24 04:33:48;;;;;;;;;;;;;;;24.51;34.05;99447.66;6156179;23;19913;-65
2023/07/24 04:36:13;;;;;;;;;;;;;;;24.58;34.03;99444.53;6156643;23;19909;-65
2023/07/24 04:38:38;;;;;;;;;;;;;;;24.66;33.97;99446.50;6156101;23;19936;-65
2023/07/24 04:41:03;;;;;;;;;;;;;;;24.73;33.83;99446.09;6156774;23;19908;-65
2023/07/24 04:43:29;;;;;;;;;;;;;;;24.79;33.61;99447.56;6156224;23;19963;-65
2023/07/24 04:45:54;;;;;;;;;;;;;;;24.82;33.89;99446.16;6155738;23;19909;-65
2023/07/24 04:48:20;;;;;;;;;;;;;;;24.84;33.70;99447.44;6155238;23;19915;-65
2023/07/24 04:50:45;;;;;;;;;;;;;;;24.93;33.90;99444.75;6155858;23;20349;-65
2023/07/24 04:53:10;;;;;;;;;;;;;;;24.99;33.78;99445.44;6155854;23;19959;-65
2023/07/24 04:55:35;;;;;;;;;;;;;;;25.11;33.73;99440.13;6156092;23;19919;-65
2023/07/24 04:58:01;;;;;;;;;;;;;;;25.21;33.69;99439.06;6155921;23;19913;-66
2023/07/24 05:00:26;;;;;;;;;;;;;;;25.25;33.57;99429.09;6156235;23;19999;-65
2023/07/24 05:02:51;;;;;;;;;;;;;;;25.36;33.78;99435.13;6156031;23;20319;-65
2023/07/24 05:05:17;;;;;;;;;;;;;;;25.45;33.79;99439.50;6156528;23;20291;-65
2023/07/24 05:07:42;;;;;;;;;;;;;;;25.53;33.86;99435.16;6156083;23;19915;-65
2023/07/24 05:10:07;;;;;;;;;;;;;;;25.58;33.68;99429.53;6156018;23;19992;-65
2023/07/24 05:12:33;;;;;;;;;;;;;;;25.63;33.13;99425.81;6156092;23;19909;-65
2023/07/24 05:14:58;;;;;;;;;;;;;;;25.72;33.05;99425.84;6156269;23;19932;-65
2023/07/24 05:17:23;;;;;;;;;;;;;;;25.73;33.47;99419.22;6156066;23;19996;-65
2023/07/24 05:19:48;;;;;;;;;;;;;;;25.78;32.84;99422.63;6156065;23;19955;-65
2023/07/24 05:22:14;;;;;;;;;;;;;;;25.86;32.88;99424.56;6155949;23;19908;-65
2023/07/24 05:24:39;;;;;;;;;;;;;;;25.94;33.09;99425.72;6129903;23;19985;-65
2023/07/24 05:27:05;;;;;;;;;;;;;;;25.96;32.85;99417.97;6156257;23;19991;-65
2023/07/24 05:29:30;;;;;;;;;;;;;;;26.06;33.10;99427.88;6155964;23;19931;-65
2023/07/24 05:31:55;;;;;;;;;;;;;;;26.15;32.68;99422.34;6155495;23;19963;-65
2023/07/24 05:34:21;;;;;;;;;;;;;;;26.25;32.70;99417.34;6155679;23;19975;-65
2023/07/24 05:36:46;;;;;;;;;;;;;;;26.28;32.43;99421.41;6155619;23;19916;-65
2023/07/24 05:39:11;;;;;;;;;;;;;;;26.29;32.62;99414.75;6155692;23;19978;-65
2023/07/24 05:41:36;;;;;;;;;;;;;;;26.36;32.42;99417.81;6155695;23;19908;-65
2023/07/24 05:44:06;;;;;;;;;;;;;;;26.41;32.76;99417.66;6156041;23;19909;-65
2023/07/24 05:46:31;;;;;;;;;;;;;;;26.48;32.56;99408.09;6155067;23;19909;-65
2023/07/24 05:48:56;;;;;;;;;;;;;;;26.46;32.03;99411.97;6155877;23;19912;-65
2023/07/24 05:51:22;;;;;;;;;;;;;;;26.53;32.45;99407.94;6155862;23;20020;-65
2023/07/24 05:53:47;;;;;;;;;;;;;;;26.58;32.10;99416.03;6155792;23;19935;-65
2023/07/24 05:56:13;;;;;;;;;;;;;;;26.61;31.93;99413.44;6155233;23;20020;-65
2023/07/24 05:58:38;;;;;;;;;;;;;;;26.68;31.85;99412.94;6155877;23;19991;-65
2023/07/24 06:01:04;;;;;;;;;;;;;;;26.72;32.01;99410.34;6155864;23;19908;-65
2023/07/24 06:03:29;;;;;;;;;;;;;;;26.72;32.22;99413.91;6155537;23;19947;-65
2023/07/24 06:05:55;;;;;;;;;;;;;;;26.80;32.12;99409.50;6155684;23;19913;-65
2023/07/24 06:08:21;;;;;;;;;;;;;;;26.86;32.00;99405.44;6155580;23;20050;-65
2023/07/24 06:10:50;;;;;;;;;;;;;;;26.90;31.82;99416.63;6155993;23;19912;-65
2023/07/24 06:13:16;;;;;;;;;;;;;;;26.93;32.10;99411.28;6155771;23;20361;-65
2023/07/24 06:15:41;;;;;;;;;;;;;;;26.97;32.15;99405.91;6155845;23;19909;-65
2023/07/24 06:18:06;;;;;;;;;;;;;;;27.04;31.90;99415.28;6155701;23;19939;-65
2023/07/24 06:20:32;;;;;;;;;;;;;;;27.07;31.73;99413.81;6155439;23;19913;-65
2023/07/24 06:22:57;;;;;;;;;;;;;;;27.14;31.75;99407.78;6155486;23;19940;-65
2023/07/24 06:25:22;;;;;;;;;;;;;;;27.16;31.67;99411.03;6155448;23;19908;-65
2023/07/24 06:27:47;;;;;;;;;;;;;;;27.20;31.64;99407.25;6155239;23;19909;-65
2023/07/24 06:30:13;;;;;;;;;;;;;;;27.29;30.96;99411.97;6155455;23;19909;-66
2023/07/24 06:32:38;;;;;;;;;;;;;;;27.30;31.30;99411.63;6155163;23;19947;-65
2023/07/24 06:35:03;;;;;;;;;;;;;;;27.35;31.42;99408.69;6155332;23;19909;-65
2023/07/24 06:37:29;;;;;;;;;;;;;;;27.41;31.47;99412.06;6155225;23;20344;-65
2023/07/24 06:39:54;;;;;;;;;;;;;;;27.48;31.25;99406.81;6155239;23;20267;-65
2023/07/24 06:42:19;;;;;;;;;;;;;;;27.48;31.19;99408.78;6154962;23;19913;-65
2023/07/24 06:44:44;;;;;;;;;;;;;;;27.52;31.18;99401.44;6155002;23;19956;-65
2023/07/24 06:47:10;;;;;;;;;;;;;;;27.60;30.95;99393.13;6128470;23;19959;-65
2023/07/24 06:49:35;;;;;;;;;;;;;;;27.64;30.84;99395.22;6154952;23;20378;-65
2023/07/24 06:52:01;;;;;;;;;;;;;;;27.73;30.69;99395.97;6154859;23;19909;-65
2023/07/24 06:54:26;;;;;;;;;;;;;;;27.80;30.57;99393.47;6154764;23;20219;-65
2023/07/24 06:56:51;;;;;;;;;;;;;;;27.90;30.34;99389.56;6155007;23;19913;-65
2023/07/24 06:59:16;;;;;;;;;;;;;;;27.91;30.49;99391.97;6154686;23;19915;-65
2023/07/24 07:01:41;;;;;;;;;;;;;;;28.05;30.54;99390.91;6154811;23;19921;-65
2023/07/24 07:04:07;;;;;;;;;;;;;;;28.11;30.12;99398.63;6154694;23;19912;-65
2023/07/24 07:06:32;;;;;;;;;;;;;;;28.18;30.46;99387.84;6154684;23;19915;-65
2023/07/24 07:08:57;;;;;;;;;;;;;;;28.23;30.17;99392.38;6157465;23;19916;-65
2023/07/24 07:11:22;;;;;;;;;;;;;;;28.21;29.98;99388.31;6158035;23;20330;-65
2023/07/24 07:13:48;;;;;;;;;;;;;;;28.31;29.77;99388.72;6158161;23;20266;-66
2023/07/24 07:16:13;;;;;;;;;;;;;;;28.31;30.08;99383.19;6157925;23;19944;-66
2023/07/24 07:18:38;;;;;;;;;;;;;;;28.35;29.91;99383.31;6158009;23;19915;-65
2023/07/24 07:21:04;;;;;;;;;;;;;;;28.46;29.94;99378.19;6157920;23;19987;-65
2023/07/24 07:23:29;;;;;;;;;;;;;;;28.54;29.96;99375.34;6158149;23;19916;-65
2023/07/24 07:25:54;;;;;;;;;;;;;;;28.64;29.94;99376.91;6158021;23;19908;-65
2023/07/24 07:28:19;;;;;;;;;;;;;;;28.71;29.64;99381.84;6158244;23;19912;-65
2023/07/24 07:30:45;;;;;;;;;;;;;;;28.87;30.25;99385.56;6158381;23;20203;-65
2023/07/24 07:33:10;;;;;;;;;;;;;;;28.96;29.73;99377.19;6158383;23;20294;-65
2023/07/24 07:35:36;;;;;;;;;;;;;;;29.09;29.27;99378.00;6158540;23;20027;-65
2023/07/24 07:38:01;;;;;;;;;;;;;;;29.19;29.58;99374.78;6158353;23;20178;-65
2023/07/24 07:40:27;;;;;;;;;;;;;;;29.29;28.97;99374.34;6158527;23;19913;-65
2023/07/24 07:42:56;;;;;;;;;;;;;;;29.39;28.84;99375.03;6132087;23;20360;-65
2023/07/24 07:45:21;;;;;;;;;;;;;;;29.44;29.09;99369.22;6158162;23;19909;-65
2023/07/24 07:47:47;;;;;;;;;;;;;;;29.50;28.73;99374.19;6157267;23;19915;-65
2023/07/24 07:50:12;;;;;;;;;;;;;;;29.56;29.52;99363.69;6158249;23;19940;-66
2023/07/24 07:52:37;;;;;;;;;;;;;;;29.63;28.69;99365.88;6157996;23;19909;-66
2023/07/24 07:55:03;;;;;;;;;;;;;;;29.71;28.22;99362.97;6158310;23;19908;-66
2023/07/24 07:57:28;;;;;;;;;;;;;;;29.76;28.47;99356.44;6158039;23;19913;-66
2023/07/24 07:59:53;;;;;;;;;;;;;;;29.85;28.63;99357.09;6158579;23;19913;-66
2023/07/24 08:02:19;;;;;;;;;;;;;;;29.99;28.23;99358.66;6158197;23;20251;-66
2023/07/24 08:04:44;;;;;;;;;;;;;;;30.03;28.37;99356.78;6158560;23;19963;-66
2023/07/24 08:07:09;;;;;;;;;;;;;;;30.11;28.28;99347.56;6157946;23;19940;-66
2023/07/24 08:09:37;;;;;;;;;;;;;;;30.14;28.00;99357.91;6157666;23;19909;-66
2023/07/24 08:12:03;;;;;;;;;;;;;;;30.20;27.76;99347.38;6157763;23;19995;-66
2023/07/24 08:14:28;;;;;;;;;;;;;;;30.17;27.41;99353.63;6132005;23;19940;-66
2023/07/24 08:16:53;;;;;;;;;;;;;;;30.20;28.17;99339.91;6158254;23;20016;-66
2023/07/24 08:19:19;;;;;;;;;;;;;;;30.28;28.53;99347.22;6157267;23;19915;-66
2023/07/24 08:21:44;;;;;;;;;;;;;;;30.30;28.36;99344.09;6156705;23;19909;-66
2023/07/24 08:24:09;;;;;;;;;;;;;;;30.37;27.68;99347.09;6156723;23;19939;-66
2023/07/24 08:26:35;;;;;;;;;;;;;;;30.42;28.19;99332.19;6156385;23;19909;-66
2023/07/24 08:29:00;;;;;;;;;;;;;;;30.43;27.13;99334.59;6156626;23;19909;-66
2023/07/24 08:31:25;;;;;;;;;;;;;;;30.54;27.45;99339.63;6156770;23;19913;-66
2023/07/24 08:33:51;;;;;;;;;;;;;;;30.63;27.34;99331.94;6156387;23;19932;-66
2023/07/24 08:36:16;;;;;;;;;;;;;;;30.67;27.42;99336.41;6130136;23;19940;-66
2023/07/24 08:38:42;;;;;;;;;;;;;;;30.81;27.66;99326.84;6156198;23;20254;-66
2023/07/24 08:41:11;;;;;;;;;;;;;;;30.85;27.60;99327.72;6130181;23;19908;-66
2023/07/24 08:43:38;;;;;;;;;;;;;;;30.87;26.90;99319.88;6156140;23;19919;-66
2023/07/24 08:46:04;;;;;;;;;;;;;;;30.93;26.95;99323.22;6156588;23;20011;-66
2023/07/24 08:48:31;;;;;;;;;;;;;;;30.98;26.74;99317.38;6129441;23;19920;-66
2023/07/24 08:50:57;;;;;;;;;;;;;;;31.05;27.30;99323.09;6156717;23;19963;-66
2023/07/24 08:53:22;;;;;;;;;;;;;;;31.07;26.77;99315.22;6156468;23;20366;-66
2023/07/24 08:55:51;;;;;;;;;;;;;;;31.13;26.92;99312.97;6156244;23;19915;-66
2023/07/24 08:58:16;;;;;;;;;;;;;;;31.21;26.81;99320.31;6156142;23;19917;-66
2023/07/24 09:00:42;;;;;;;;;;;;;;;31.24;27.61;99316.81;6156787;23;19915;-66
2023/07/24 09:03:08;;;;;;;;;;;;;;;31.31;27.21;99316.97;6156189;23;20374;-66
2023/07/24 09:05:33;;;;;;;;;;;;;;;31.33;26.74;99311.84;6156689;23;19909;-66
2023/07/24 09:07:58;;;;;;;;;;;;;;;31.38;27.09;99313.56;6156245;23;19915;-66
2023/07/24 09:10:25;;;;;;;;;;;;;;;31.50;26.95;99307.09;6156289;23;20238;-65
2023/07/24 09:12:50;;;;;;;;;;;;;;;31.63;27.33;99306.63;6156275;23;19988;-65
2023/07/24 09:15:15;;;;;;;;;;;;;;;31.77;26.39;99300.56;6129976;23;20370;-65
2023/07/24 09:17:51;;;;;;;;;;;;;;;31.89;26.61;99307.13;6156035;23;19923;-65
2023/07/24 09:20:16;;;;;;;;;;;;;;;32.01;25.91;99305.00;6155625;23;19983;-66
2023/07/24 09:22:52;;;;;;;;;;;;;;;32.02;26.23;99300.25;6129854;23;19962;-65
2023/07/24 09:25:17;;;;;;;;;;;;;;;32.11;26.19;99300.03;6156362;23;19913;-66
2023/07/24 09:27:43;;;;;;;;;;;;;;;32.18;26.04;99300.19;6155650;23;19992;-66
2023/07/24 09:30:13;;;;;;;;;;;;;;;32.23;26.16;99294.34;6155666;23;19909;-66
2023/07/24 09:32:38;;;;;;;;;;;;;;;32.28;26.35;99298.78;6155709;23;20269;-66
2023/07/24 09:35:04;;;;;;;;;;;;;;;32.32;25.79;99299.66;6155896;23;19916;-66
2023/07/24 09:37:33;;;;;;;;;;;;;;;32.31;25.59;99298.03;6155633;23;19913;-66
2023/07/24 09:39:59;;;;;;;;;;;;;;;32.20;25.46;99290.31;6155704;23;19916;-66
2023/07/24 09:42:31;;;;;;;;;;;;;;;32.17;26.40;99290.22;6155827;23;19908;-66
2023/07/24 09:44:56;;;;;;;;;;;;;;;32.09;25.67;99282.94;6156136;23;19912;-66
2023/07/24 09:47:22;;;;;;;;;;;;;;;32.07;25.81;99290.84;6155311;23;19943;-66
2023/07/24 09:49:47;;;;;;;;;;;;;;;32.08;25.51;99290.50;6155443;23;19908;-66
2023/07/24 09:52:14;;;;;;;;;;;;;;;31.98;24.99;99293.81;6156064;23;19908;-66
2023/07/24 09:54:48;;;;;;;;;;;;;;;31.89;25.68;99287.69;6155503;23;19919;-66
2023/07/24 09:57:14;;;;;;;;;;;;;;;31.86;25.43;99286.47;6155328;23;19917;-66
2023/07/24 09:59:40;;;;;;;;;;;;;;;31.85;25.07;99284.84;6155500;23;19939;-66
2023/07/24 10:02:08;;;;;;;;;;;;;;;31.81;26.53;99284.75;6154793;23;19916;-66
2023/07/24 10:04:34;;;;;;;;;;;;;;;31.74;25.91;99284.66;6155041;23;19909;-66
2023/07/24 10:06:59;;;;;;;;;;;;;;;31.72;25.51;99283.38;6155221;23;20004;-66
2023/07/24 10:09:25;;;;;;;;;;;;;;;31.63;26.22;99283.59;6154943;23;20340;-65
2023/07/24 10:11:50;;;;;;;;;;;;;;;31.51;26.86;99276.22;6129437;23;20579;-66
2023/07/24 10:14:16;;;;;;;;;;;;;;;31.44;27.14;99279.63;6154787;23;19909;-66
2023/07/24 10:16:42;;;;;;;;;;;;;;;31.37;26.62;99276.69;6154869;23;19912;-66
2023/07/24 10:19:15;;;;;;;;;;;;;;;31.30;26.58;99273.75;6154792;23;19954;-66
2023/07/24 10:21:44;;;;;;;;;;;;;;;31.27;26.96;99266.16;6155192;23;19916;-66
2023/07/24 10:24:09;;;;;;;;;;;;;;;31.22;27.80;99264.47;6154981;23;20226;-66
2023/07/24 10:26:35;;;;;;;;;;;;;;;31.14;26.46;99273.00;6155478;23;19943;-66
2023/07/24 10:29:01;;;;;;;;;;;;;;;31.01;27.21;99278.66;6155503;23;19909;-66
2023/07/24 10:31:27;;;;;;;;;;;;;;;30.93;28.30;99263.00;6155069;23;19982;-66
2023/07/24 10:33:53;;;;;;;;;;;;;;;30.79;27.76;99259.88;6155278;23;20378;-66
2023/07/24 10:36:19;;;;;;;;;;;;;;;30.65;28.80;99255.59;6155213;23;19909;-66
2023/07/24 10:38:45;;;;;;;;;;;;;;;30.55;28.46;99260.88;6155142;23;20319;-66
2023/07/24 10:41:11;;;;;;;;;;;;;;;30.47;29.53;99254.34;6154867;23;19940;-66
2023/07/24 10:43:43;;;;;;;;;;;;;;;30.46;28.64;99252.72;6154691;23;19975;-66
2023/07/24 10:46:09;;;;;;;;;;;;;;;30.43;28.22;99251.47;6154897;23;19932;-66
2023/07/24 10:48:34;;;;;;;;;;;;;;;30.46;28.37;99242.47;6154139;23;20311;-66
2023/07/24 10:51:05;;;;;;;;;;;;;;;30.46;28.53;99236.09;6154658;23;19908;-66
2023/07/24 10:53:30;;;;;;;;;;;;;;;30.47;29.16;99243.25;6155174;23;19909;-66
2023/07/24 10:55:56;;;;;;;;;;;;;;;30.47;28.16;99238.50;6154968;23;19987;-66
2023/07/24 10:58:24;;;;;;;;;;;;;;;30.51;28.72;99233.06;6154922;23;20291;-66
2023/07/24 11:00:49;;;;;;;;;;;;;;;30.59;27.96;99234.03;6154911;23;19909;-66
2023/07/24 11:03:15;;;;;;;;;;;;;;;30.61;27.92;99228.94;6154594;23;19917;-65
2023/07/24 11:05:41;;;;;;;;;;;;;;;30.65;28.28;99232.63;6155230;23;19908;-66
2023/07/24 11:08:14;;;;;;;;;;;;;;;30.69;27.67;99222.41;6155144;23;20287;-66
2023/07/24 11:10:43;;;;;;;;;;;;;;;30.74;28.26;99221.34;6154975;23;20310;-66
2023/07/24 11:13:10;;;;;;;;;;;;;;;30.84;28.13;99216.03;6155132;23;19912;-66
2023/07/24 11:15:35;;;;;;;;;;;;;;;30.91;28.78;99218.22;6128681;23;19908;-66
2023/07/24 11:18:02;;;;;;;;;;;;;;;30.90;28.51;99213.78;6128818;23;20254;-66
2023/07/24 11:20:27;;;;;;;;;;;;;;;30.86;28.36;99201.81;6154910;23;19913;-66
2023/07/24 11:22:52;;;;;;;;;;;;;;;30.86;28.34;99199.06;6155408;23;19908;-66
2023/07/24 11:25:18;;;;;;;;;;;;;;;30.77;28.39;99204.00;6155245;23;20325;-66
2023/07/24 11:27:44;;;;;;;;;;;;;;;30.69;27.91;99201.03;6155239;23;19917;-66
2023/07/24 11:30:12;;;;;;;;;;;;;;;30.67;28.38;99199.81;6155444;23;19955;-66
2023/07/24 11:32:38;;;;;;;;;;;;;;;30.59;27.81;99203.56;6154980;23;20252;-66
2023/07/24 11:35:04;;;;;;;;;;;;;;;30.57;28.45;99201.16;6154926;23;19932;-66
2023/07/24 11:37:29;;;;;;;;;;;;;;;30.54;28.35;99204.66;6128272;23;19920;-66
2023/07/24 11:39:55;;;;;;;;;;;;;;;30.52;27.69;99206.97;6154519;23;19909;-66
2023/07/24 11:42:21;;;;;;;;;;;;;;;30.51;28.58;99199.03;6154473;23;19999;-67
2023/07/24 11:44:46;;;;;;;;;;;;;;;30.54;28.10;99203.84;6155007;23;19917;-66
2023/07/24 11:47:11;;;;;;;;;;;;;;;30.48;28.41;99195.81;6153723;23;19915;-67
2023/07/24 11:49:37;;;;;;;;;;;;;;;30.47;27.90;99198.94;6155235;23;20010;-66
2023/07/24 11:52:05;;;;;;;;;;;;;;;30.43;28.63;99198.03;6154917;23;19992;-66
2023/07/24 11:54:34;;;;;;;;;;;;;;;30.47;29.36;99190.63;6155396;23;19993;-66
2023/07/24 11:56:59;;;;;;;;;;;;;;;30.46;29.26;99189.00;6156759;23;19913;-66
2023/07/24 11:59:24;;;;;;;;;;;;;;;30.51;29.11;99185.16;6156785;23;19915;-66
2023/07/24 12:01:50;;;;;;;;;;;;;;;30.41;30.45;99181.78;6156311;23;19924;-66
2023/07/24 12:04:16;;;;;;;;;;;;;;;30.41;29.14;99186.53;6130432;23;19909;-66
2023/07/24 12:06:41;;;;;;;;;;;;;;;30.33;30.47;99193.03;6156750;23;19915;-66
2023/07/24 12:09:07;;;;;;;;;;;;;;;30.22;30.88;99201.03;6156978;23;19912;-66
2023/07/24 12:11:33;;;;;;;;;;;;;;;30.08;31.77;99198.72;6156428;23;19909;-66
2023/07/24 12:13:58;;;;;;;;;;;;;;;30.08;30.67;99193.19;6156638;23;19996;-66
2023/07/24 12:16:24;;;;;;;;;;;;;;;30.05;31.52;99202.19;6156439;23;19909;-66
2023/07/24 12:18:49;;;;;;;;;;;;;;;29.99;30.63;99201.66;6156125;23;19915;-66
2023/07/24 12:21:14;;;;;;;;;;;;;;;29.97;31.73;99195.66;6156653;23;19913;-66
2023/07/24 12:23:40;;;;;;;;;;;;;;;29.91;32.06;99195.13;6156477;23;19909;-66
2023/07/24 12:26:05;;;;;;;;;;;;;;;29.91;31.51;99186.03;6156250;23;20330;-66
2023/07/24 12:28:30;;;;;;;;;;;;;;;29.92;31.92;99190.38;6156460;23;19913;-66
2023/07/24 12:30:55;;;;;;;;;;;;;;;29.90;32.09;99190.75;6156405;23;20291;-66
2023/07/24 12:33:23;;;;;;;;;;;;;;;29.87;31.45;99194.22;6156504;23;19928;-66
2023/07/24 12:35:52;;;;;;;;;;;;;;;29.80;31.33;99182.97;6156304;23;20307;-66
2023/07/24 12:38:17;;;;;;;;;;;;;;;29.69;30.77;99193.72;6156297;23;19913;-66
2023/07/24 12:40:43;;;;;;;;;;;;;;;29.54;30.27;99186.97;6156501;23;19916;-66